createdAt,value
2022-08-26T00:00:13.656Z,5.50
2022-08-26T00:02:46.163Z,4.85
2022-08-26T00:07:51.229Z,4.68
2022-08-26T00:10:24.016Z,3.30
2022-08-26T00:12:58.304Z,3.63
2022-08-26T00:15:31.117Z,2.85
2022-08-26T00:18:02.970Z,3.55
2022-08-26T00:20:37.215Z,2.55
2022-08-26T00:25:42.546Z,3.85
2022-08-26T00:28:15.141Z,4.25
2022-08-26T00:31:13.120Z,2.55
2022-08-26T07:12:01.602Z,6.80
2022-08-26T07:14:34.571Z,7.32
2022-08-26T07:17:11.071Z,4.28
2022-08-26T07:19:47.136Z,4.30
2022-08-26T07:22:19.010Z,6.43
2022-08-26T07:24:51.754Z,5.00
2022-08-26T07:27:24.497Z,7.88
2022-08-26T07:29:57.283Z,6.15
2022-08-26T07:32:30.841Z,6.13
2022-08-26T07:35:03.826Z,4.32
2022-08-26T07:37:39.223Z,5.07
2022-08-26T07:40:12.289Z,5.25
2022-08-26T07:42:44.884Z,13.40
2022-08-26T07:45:18.121Z,10.10
2022-08-26T07:47:51.199Z,5.47
2022-08-26T07:50:49.451Z,5.82
2022-08-26T07:53:17.937Z,3.85
2022-08-26T07:55:51.790Z,5.57
2022-08-26T07:58:24.509Z,5.40
2022-08-26T08:00:58.270Z,8.93
2022-08-26T08:03:30.825Z,3.85
2022-08-26T08:06:03.899Z,4.97
2022-08-26T08:08:37.473Z,5.00
2022-08-26T08:11:09.993Z,3.47
2022-08-26T08:13:43.813Z,4.45
2022-08-26T08:16:15.855Z,3.38
2022-08-26T08:18:49.038Z,4.70
2022-08-26T08:21:23.622Z,3.70
2022-08-26T08:23:57.857Z,3.28
2022-08-26T08:26:29.749Z,4.68
2022-08-26T08:29:02.367Z,4.68
2022-08-26T08:34:29.563Z,6.60
2022-08-26T08:37:01.539Z,7.13
2022-08-26T08:39:36.265Z,3.10
2022-08-26T08:42:36.279Z,6.35
2022-08-26T08:45:12.931Z,5.07
2022-08-26T08:47:54.093Z,4.75
2022-08-26T08:50:44.990Z,5.50
2022-08-26T08:53:39.521Z,3.60
2022-08-26T08:56:34.860Z,7.20
2022-08-26T08:59:18.136Z,6.70
2022-08-26T09:01:59.788Z,4.55
2022-08-26T09:05:15.439Z,4.60
2022-08-26T09:07:54.237Z,4.38
2022-08-26T09:10:31.659Z,3.28
2022-08-26T09:13:16.345Z,4.03
2022-08-26T09:16:04.707Z,3.90
2022-08-26T09:18:36.859Z,4.47
2022-08-26T09:21:13.301Z,5.47
2022-08-26T09:23:49.460Z,5.47
2022-08-26T09:26:29.289Z,8.85
2022-08-26T09:29:05.949Z,7.63
2022-08-26T09:31:42.266Z,4.63
2022-08-26T09:34:28.548Z,6.60
2022-08-26T09:37:00.671Z,6.25
2022-08-26T09:39:38.907Z,3.78
2022-08-26T09:42:25.419Z,7.15
2022-08-26T09:45:02.120Z,4.30
2022-08-26T09:47:39.177Z,5.65
2022-08-26T09:50:30.004Z,6.88
2022-08-26T09:53:28.659Z,3.70
2022-08-26T09:56:17.647Z,5.78
2022-08-26T09:58:50.379Z,7.13
2022-08-26T10:01:23.805Z,5.05
2022-08-26T10:04:08.927Z,6.53
2022-08-26T10:07:03.528Z,4.88
2022-08-26T10:09:40.546Z,4.72
2022-08-26T10:12:21.920Z,5.38
2022-08-26T10:15:03.365Z,6.47
2022-08-26T10:17:49.193Z,4.88
2022-08-26T10:20:26.409Z,6.72
2022-08-26T10:23:07.823Z,6.70
2022-08-26T10:26:05.763Z,3.93
2022-08-26T10:28:57.944Z,5.53
2022-08-26T10:31:40.964Z,7.57
2022-08-26T10:34:14.546Z,6.97
2022-08-26T10:37:13.948Z,5.97
2022-08-26T10:40:18.424Z,8.30
2022-08-26T10:42:56.585Z,6.43
2022-08-26T10:45:32.780Z,7.57
2022-08-26T10:48:18.249Z,6.72
2022-08-26T10:50:50.770Z,6.22
2022-08-26T10:53:32.872Z,3.75
2022-08-26T10:56:15.694Z,5.78
2022-08-26T10:59:10.409Z,5.00
2022-08-26T11:02:06.832Z,7.57
2022-08-26T11:04:52.173Z,5.75
2022-08-26T11:07:46.951Z,7.97
2022-08-26T11:10:25.197Z,6.68
2022-08-26T11:13:07.372Z,6.03
2022-08-26T11:18:32.932Z,5.25
2022-08-26T11:21:45.222Z,7.80
2022-08-26T11:24:57.336Z,5.78
2022-08-26T11:27:35.411Z,7.15
2022-08-26T11:30:13.641Z,7.07
2022-08-26T11:32:58.686Z,7.57
2022-08-26T11:35:37.551Z,6.07
2022-08-26T11:38:15.150Z,16.08
2022-08-26T11:41:16.581Z,14.27
2022-08-26T11:43:51.967Z,4.90
2022-08-26T11:46:27.896Z,6.30
2022-08-26T11:49:06.052Z,5.28
2022-08-26T11:51:40.906Z,5.57
2022-08-26T11:54:22.847Z,6.22
2022-08-26T11:57:13.406Z,5.25
2022-08-26T11:59:46.056Z,4.78
2022-08-26T12:02:19.735Z,7.05
2022-08-26T12:04:54.395Z,6.32
2022-08-26T12:07:29.194Z,7.40
2022-08-26T12:10:04.613Z,8.70
2022-08-26T12:12:39.353Z,4.13
2022-08-26T12:15:14.034Z,7.60
2022-08-26T12:17:52.966Z,4.30
2022-08-26T12:20:49.635Z,8.23
2022-08-26T12:23:22.457Z,4.80
2022-08-26T12:26:11.001Z,7.15
2022-08-26T12:28:58.453Z,8.85
2022-08-26T12:31:38.151Z,5.72
2022-08-26T12:34:18.114Z,5.68
2022-08-26T12:36:56.744Z,7.75
2022-08-26T12:39:37.214Z,5.25
2022-08-26T12:42:17.971Z,5.15
2022-08-26T12:45:07.073Z,5.30
2022-08-26T12:47:46.187Z,5.95
2022-08-26T12:50:23.685Z,11.45
2022-08-26T12:53:12.001Z,6.25
2022-08-26T12:56:03.624Z,4.43
2022-08-26T13:01:10.464Z,5.05
2022-08-26T13:03:45.878Z,8.05
2022-08-26T13:06:37.560Z,5.38
2022-08-26T13:09:09.712Z,5.60
2022-08-26T13:11:42.794Z,5.32
2022-08-26T13:14:23.772Z,5.70
2022-08-26T13:16:58.229Z,4.28
2022-08-26T13:19:30.850Z,5.07
2022-08-26T13:22:08.016Z,5.07
2022-08-26T13:24:44.482Z,6.90
2022-08-26T13:27:21.117Z,5.50
2022-08-26T13:29:55.081Z,5.80
2022-08-26T13:32:28.803Z,4.22
2022-08-26T13:35:05.510Z,6.35
2022-08-26T13:37:40.311Z,6.60
2022-08-26T13:40:14.477Z,7.43
2022-08-26T13:42:49.563Z,6.00
2022-08-26T13:45:24.213Z,12.82
2022-08-26T13:47:57.867Z,6.68
2022-08-26T13:50:29.960Z,6.07
2022-08-26T13:53:03.883Z,5.45
2022-08-26T13:55:36.515Z,6.03
2022-08-26T13:58:13.293Z,4.50
2022-08-26T14:00:47.135Z,5.95
2022-08-26T14:03:24.315Z,5.97
2022-08-26T14:05:56.965Z,7.10
2022-08-26T14:08:29.541Z,5.70
2022-08-26T16:44:28.083Z,8.80
2022-08-26T16:47:03.149Z,8.43
2022-08-26T16:49:37.872Z,9.43
2022-08-26T16:52:10.749Z,7.45
2022-08-26T16:54:45.781Z,8.88
2022-08-26T16:57:18.384Z,9.60
2022-08-26T16:59:51.387Z,9.85
2022-08-26T17:02:23.677Z,6.82
2022-08-26T17:04:57.531Z,9.25
2022-08-26T17:07:30.562Z,8.13
2022-08-26T17:10:02.795Z,8.18
2022-08-26T17:12:36.598Z,8.02
2022-08-26T17:15:09.326Z,11.32
2022-08-26T17:17:42.305Z,10.80
2022-08-26T17:20:17.065Z,10.50
2022-08-26T17:22:50.752Z,8.55
2022-08-26T17:25:26.629Z,8.88
2022-08-26T17:27:59.361Z,10.10
2022-08-26T17:30:31.244Z,9.50
2022-08-26T17:33:10.896Z,7.70
2022-08-26T17:35:42.956Z,9.57
2022-08-26T17:38:15.584Z,10.82
2022-08-26T17:40:47.876Z,12.20
2022-08-26T17:43:19.793Z,9.35
2022-08-26T17:45:57.038Z,10.98
2022-08-26T17:48:30.795Z,8.90
2022-08-26T17:51:12.925Z,9.75
2022-08-26T17:53:45.269Z,11.40
2022-08-26T17:56:21.415Z,9.95
2022-08-26T17:58:57.597Z,9.38
2022-08-26T18:01:35.050Z,10.73
2022-08-26T18:04:07.317Z,9.02
2022-08-26T18:06:41.062Z,10.30
2022-08-26T18:09:13.122Z,8.95
2022-08-26T18:11:45.626Z,12.65
2022-08-26T18:14:17.414Z,9.55
2022-08-26T18:16:51.230Z,12.77
2022-08-26T18:19:23.067Z,10.15
2022-08-26T18:24:30.304Z,11.85
2022-08-26T18:27:02.706Z,9.18
2022-08-26T18:32:07.102Z,8.45
2022-08-26T18:39:51.049Z,10.48
2022-08-26T18:44:56.139Z,8.32
2022-08-26T18:47:28.813Z,10.35
2022-08-26T18:50:01.634Z,10.07
2022-08-26T18:52:34.015Z,12.43
2022-08-26T19:00:11.505Z,10.68
2022-08-26T19:02:43.977Z,7.13
2022-08-26T19:05:25.447Z,8.63
2022-08-26T19:07:57.917Z,7.53
2022-08-26T19:13:02.808Z,10.60
2022-08-26T19:15:41.655Z,8.98
2022-08-26T19:18:15.108Z,10.10
2022-08-26T19:20:47.892Z,9.32
2022-08-26T19:23:31.329Z,10.45
2022-08-26T19:26:05.965Z,9.25
2022-08-26T19:28:43.066Z,9.60
2022-08-26T19:31:15.594Z,12.32
2022-08-26T19:33:48.096Z,8.45
2022-08-26T19:36:23.431Z,8.18
2022-08-26T19:38:57.098Z,6.85
2022-08-26T19:41:37.183Z,8.63
2022-08-26T19:44:13.424Z,7.30
2022-08-26T19:46:45.177Z,8.30
2022-08-26T19:49:17.520Z,8.02
2022-08-26T19:51:49.975Z,7.63
2022-08-26T19:54:25.510Z,6.63
2022-08-26T19:56:57.369Z,7.50
2022-08-26T19:59:29.746Z,9.88
2022-08-26T20:02:03.050Z,6.80
2022-08-26T20:04:36.505Z,7.32
2022-08-26T20:07:09.492Z,9.93
2022-08-26T20:09:42.100Z,10.23
2022-08-26T20:14:47.891Z,10.95
2022-08-26T20:20:26.864Z,11.18
2022-08-26T20:23:04.354Z,9.73
2022-08-26T20:25:36.792Z,7.75
2022-08-26T20:28:09.114Z,9.25
2022-08-26T20:30:41.708Z,7.97
2022-08-26T20:35:45.955Z,8.50
2022-08-26T20:38:21.459Z,7.53
2022-08-26T20:40:54.205Z,7.85
2022-08-26T20:43:28.442Z,7.40
2022-08-26T20:46:01.404Z,8.05
2022-08-26T20:48:33.284Z,8.45
2022-08-26T20:51:06.357Z,7.50
2022-08-26T20:53:38.534Z,7.68
2022-08-26T20:56:13.006Z,7.47
2022-08-26T20:58:44.825Z,7.75
2022-08-26T21:01:26.256Z,8.68
2022-08-26T21:03:58.096Z,6.05
2022-08-26T21:06:31.142Z,7.90
2022-08-26T21:09:06.577Z,6.45
2022-08-26T21:11:40.398Z,7.53
2022-08-26T21:14:16.091Z,9.02
2022-08-26T21:16:50.122Z,8.45
2022-08-26T21:19:21.991Z,8.13
2022-08-26T21:21:54.387Z,8.43
2022-08-26T21:24:26.272Z,8.30
2022-08-26T21:26:58.799Z,8.32
2022-08-26T21:29:30.634Z,8.73
2022-08-26T21:32:03.435Z,9.27
2022-08-26T21:34:35.372Z,11.77
2022-08-26T21:37:15.363Z,8.25
2022-08-26T21:39:56.247Z,11.03
2022-08-26T21:42:33.246Z,6.68
2022-08-26T21:45:06.161Z,8.60
2022-08-26T21:47:38.583Z,7.70
2022-08-26T21:50:10.434Z,8.05
2022-08-26T21:52:42.764Z,7.43
2022-08-26T21:55:14.541Z,7.35
2022-08-26T21:57:47.002Z,9.07
2022-08-26T22:00:19.474Z,8.25
2022-08-26T22:02:51.870Z,9.73
2022-08-26T22:05:23.693Z,8.45
2022-08-26T22:07:56.156Z,8.23
2022-08-26T22:10:28.015Z,8.60
2022-08-26T22:13:00.480Z,8.88
2022-08-26T22:15:35.288Z,8.25
2022-08-26T22:18:09.079Z,7.10
2022-08-26T22:20:41.384Z,7.72
2022-08-26T22:23:14.154Z,7.70
2022-08-26T22:25:46.547Z,8.63
2022-08-26T22:28:20.086Z,8.25
2022-08-26T22:30:52.335Z,6.63
2022-08-26T22:33:24.994Z,6.97
2022-08-26T22:35:56.873Z,6.85
2022-08-26T22:38:29.351Z,6.82
2022-08-26T22:41:03.438Z,7.53
2022-08-26T22:43:39.121Z,8.48
2022-08-26T22:48:50.319Z,7.35
2022-08-26T22:51:26.635Z,7.82
2022-08-26T22:53:59.361Z,8.43
2022-08-26T22:56:31.152Z,8.90
2022-08-26T22:59:05.317Z,9.80
2022-08-26T23:01:43.208Z,10.65
2022-08-26T23:04:15.669Z,9.65
2022-08-26T23:06:48.097Z,10.38
2022-08-26T23:09:20.590Z,9.00
2022-08-26T23:11:55.894Z,8.60
2022-08-26T23:14:28.385Z,8.05
2022-08-26T23:19:32.713Z,8.98
2022-08-26T23:22:04.887Z,7.90
2022-08-26T23:27:09.437Z,7.90
2022-08-26T23:29:42.648Z,8.98
2022-08-26T23:32:14.469Z,9.65
2022-08-26T23:35:01.878Z,8.73
2022-08-26T23:37:37.973Z,7.47
2022-08-26T23:40:16.086Z,9.80
2022-08-26T23:42:47.970Z,9.40
2022-08-26T23:45:20.681Z,8.93
2022-08-26T23:47:53.197Z,9.07
2022-08-26T23:50:49.612Z,7.97
2022-08-26T23:53:22.494Z,8.70
2022-08-26T23:55:54.917Z,8.73
2022-08-26T23:58:26.812Z,9.68
